Time;durP1;ratioP1;P1;durP2;ratioP2;P2;SDS_P1;SDS_P2;PMS_P1;PMS_P2;Temp;Humidity;BMP_temperature;BMP_pressure;BME280_temperature;BME280_humidity;BME280_pressure;Samples;Min_cycle;Max_cycle;Signal;HPM_P1;HPM_P2
2022/01/16 00:00:51;;;;;;;79.05;26.52;;;2.70;99.90;;;;;;4991420;28;20049;-64
2022/01/16 00:06:00;;;;;;;70.30;25.27;;;2.70;99.90;;;;;;4991399;28;20555;-64
2022/01/16 00:08:26;;;;;;;80.55;27.15;;;2.70;99.90;;;;;;4991629;28;20075;-64
2022/01/16 00:10:52;;;;;;;71.97;25.33;;;2.70;99.90;;;;;;4991455;28;20582;-64
2022/01/16 00:13:17;;;;;;;71.40;26.35;;;2.60;99.90;;;;;;4990072;28;20050;-64
2022/01/16 00:15:44;;;;;;;67.63;26.17;;;2.60;99.90;;;;;;4991355;28;20526;-63
2022/01/16 00:18:20;;;;;;;68.22;25.25;;;2.60;99.90;;;;;;4991048;28;20043;-65
2022/01/16 00:20:46;;;;;;;67.22;24.98;;;2.60;99.90;;;;;;4991239;28;20058;-64
2022/01/16 00:23:11;;;;;;;69.55;26.27;;;2.60;99.90;;;;;;4991309;28;20406;-65
2022/01/16 00:25:37;;;;;;;69.15;25.08;;;2.60;99.90;;;;;;4991348;28;20101;-65
2022/01/16 00:28:03;;;;;;;71.90;25.55;;;2.60;99.90;;;;;;4991052;28;20104;-65
2022/01/16 00:30:28;;;;;;;69.18;26.95;;;2.60;99.90;;;;;;4990744;28;20125;-63
2022/01/16 00:32:59;;;;;;;68.15;26.42;;;2.60;99.90;;;;;;4990883;28;20050;-64
2022/01/16 00:35:25;;;;;;;67.65;25.77;;;2.70;99.90;;;;;;4991164;28;20512;-65
2022/01/16 00:37:52;;;;;;;74.82;25.17;;;2.60;99.90;;;;;;4991027;28;20142;-64
2022/01/16 00:40:17;;;;;;;71.15;24.60;;;2.50;99.90;;;;;;4990909;28;20502;-65
2022/01/16 00:42:43;;;;;;;71.93;25.35;;;2.50;99.90;;;;;;4990691;28;20049;-65
2022/01/16 00:45:09;;;;;;;71.30;24.83;;;2.50;99.90;;;;;;4990876;28;20034;-64
2022/01/16 00:47:34;;;;;;;74.03;26.13;;;2.50;99.90;;;;;;4990763;28;20038;-64
2022/01/16 00:50:00;;;;;;;81.47;26.45;;;2.50;99.90;;;;;;4990808;28;20125;-64
2022/01/16 00:52:25;;;;;;;84.55;26.40;;;2.50;99.90;;;;;;4990701;28;20046;-64
2022/01/16 00:54:51;;;;;;;77.50;25.48;;;2.50;99.90;;;;;;4989435;28;20050;-64
2022/01/16 00:57:16;;;;;;;82.40;25.83;;;2.50;99.90;;;;;;4990559;28;20443;-65
2022/01/16 00:59:42;;;;;;;76.97;27.42;;;2.50;99.90;;;;;;4990434;28;20562;-65
2022/01/16 01:02:07;;;;;;;76.65;25.30;;;2.50;99.90;;;;;;4989358;28;20201;-65
2022/01/16 01:04:33;;;;;;;81.60;26.13;;;2.50;99.90;;;;;;4989316;28;20049;-65
2022/01/16 01:06:59;;;;;;;79.53;25.45;;;2.50;99.90;;;;;;4990596;28;20057;-64
2022/01/16 01:09:24;;;;;;;82.88;27.58;;;2.50;99.90;;;;;;4990634;28;20038;-64
2022/01/16 01:11:50;;;;;;;87.93;28.45;;;2.50;99.90;;;;;;4990521;28;20038;-64
2022/01/16 01:14:38;;;;;;;88.03;28.10;;;2.50;99.90;;;;;;4988775;28;20042;-65
2022/01/16 01:17:04;;;;;;;85.43;31.08;;;2.50;99.90;;;;;;4990496;28;20671;-65
2022/01/16 01:19:34;;;;;;;80.15;27.02;;;2.40;99.90;;;;;;4990472;28;20113;-64
2022/01/16 01:22:04;;;;;;;78.50;27.42;;;2.40;99.90;;;;;;4990670;28;20508;-64
2022/01/16 01:24:31;;;;;;;77.40;26.73;;;2.40;99.90;;;;;;4990143;28;20737;-64
2022/01/16 01:29:23;;;;;;;83.13;28.40;;;2.40;99.90;;;;;;4990421;28;20058;-64
2022/01/16 01:31:51;;;;;;;84.18;28.65;;;2.30;99.90;;;;;;4991465;28;20466;-63
2022/01/16 01:34:17;;;;;;;81.50;28.88;;;2.30;99.90;;;;;;4992879;28;20057;-65
2022/01/16 01:36:47;;;;;;;77.78;28.73;;;2.30;99.90;;;;;;4994339;28;20034;-65
2022/01/16 01:39:13;;;;;;;74.25;27.50;;;2.20;99.90;;;;;;4992725;28;20046;-65
2022/01/16 01:41:39;;;;;;;72.20;25.65;;;2.20;99.90;;;;;;4994388;28;20130;-64
2022/01/16 01:52:17;;;;;;;75.53;25.77;;;2.20;99.90;;;;;;4994373;28;20061;-64
2022/01/16 01:54:43;;;;;;;75.07;26.67;;;2.20;99.90;;;;;;4993924;28;20038;-63
2022/01/16 01:57:09;;;;;;;76.53;25.55;;;2.10;99.90;;;;;;4993908;28;20082;-65
2022/01/16 01:59:34;;;;;;;81.80;26.85;;;2.10;99.90;;;;;;4993716;28;20070;-65
2022/01/16 02:02:00;;;;;;;79.85;25.83;;;2.10;99.90;;;;;;4993979;28;20117;-64
2022/01/16 02:04:25;;;;;;;78.60;26.95;;;2.10;99.90;;;;;;4993279;28;20166;-64
2022/01/16 02:06:51;;;;;;;87.22;26.65;;;2.10;99.90;;;;;;4993890;28;20510;-64
2022/01/16 02:09:17;;;;;;;81.75;25.92;;;2.10;99.90;;;;;;4993718;28;20057;-64
2022/01/16 02:11:43;;;;;;;83.93;26.27;;;2.10;99.90;;;;;;4993900;28;20454;-64
2022/01/16 02:14:29;;;;;;;83.40;26.58;;;2.10;99.90;;;;;;4993542;28;20060;-64
2022/01/16 02:28:36;;;;;;;106.82;28.17;;;2.10;99.90;;;;;;4993518;28;20052;-64
2022/01/16 02:31:16;;;;;;;104.13;29.08;;;2.10;99.90;;;;;;4993234;28;20479;-64
2022/01/16 02:36:30;;;;;;;89.15;25.05;;;2.20;99.90;;;;;;4993431;28;20055;-64
2022/01/16 02:39:00;;;;;;;118.13;31.38;;;2.20;99.90;;;;;;4991920;28;20042;-65
2022/01/16 02:41:25;;;;;;;118.38;29.65;;;2.20;99.90;;;;;;4993135;28;20100;-64
2022/01/16 02:43:52;;;;;;;114.13;30.85;;;2.20;99.90;;;;;;4992738;28;20046;-64
2022/01/16 02:48:46;;;;;;;93.22;26.13;;;2.30;99.90;;;;;;4991956;28;20054;-64
2022/01/16 02:51:17;;;;;;;134.70;36.25;;;2.30;99.90;;;;;;4992896;28;20088;-64
2022/01/16 02:53:44;;;;;;;116.40;30.17;;;2.30;99.90;;;;;;4992876;28;20095;-64
2022/01/16 02:56:10;;;;;;;142.15;32.53;;;2.30;99.90;;;;;;4992950;28;20077;-65
2022/01/16 02:58:36;;;;;;;166.75;38.50;;;2.30;99.90;;;;;;4991408;28;20100;-64
2022/01/16 03:01:02;;;;;;;130.35;29.63;;;2.30;99.90;;;;;;4992580;28;20481;-64
2022/01/16 03:03:27;;;;;;;132.52;31.17;;;2.40;99.90;;;;;;4991193;28;20513;-63
2022/01/16 03:05:53;;;;;;;151.20;32.10;;;2.40;99.90;;;;;;4992825;28;20038;-65
2022/01/16 03:08:18;;;;;;;153.98;33.08;;;2.40;99.90;;;;;;4992681;28;20046;-64
2022/01/16 03:13:40;;;;;;;153.00;31.27;;;2.40;99.90;;;;;;4954850;28;20049;-63
2022/01/16 03:16:05;;;;;;;138.57;31.55;;;2.50;99.90;;;;;;4992611;28;20081;-64
2022/01/16 03:23:59;;;;;;;175.38;35.03;;;2.50;99.90;;;;;;4990881;28;20053;-63
2022/01/16 03:26:25;;;;;;;147.43;33.40;;;2.60;99.90;;;;;;4992541;28;20031;-64
2022/01/16 03:28:50;;;;;;;149.02;31.60;;;2.60;99.90;;;;;;4991222;28;20050;-64
2022/01/16 03:31:16;;;;;;;145.57;34.03;;;2.60;99.90;;;;;;4991066;28;20525;-64
2022/01/16 03:33:41;;;;;;;182.65;39.03;;;2.60;99.90;;;;;;4990564;28;20678;-63
2022/01/16 03:36:07;;;;;;;165.13;37.95;;;2.60;99.90;;;;;;4992246;28;20050;-64
2022/01/16 03:38:32;;;;;;;144.45;37.55;;;2.60;99.90;;;;;;4990755;28;20050;-63
2022/01/16 03:40:58;;;;;;;135.38;33.35;;;2.60;99.90;;;;;;4992026;28;20038;-64
2022/01/16 03:43:24;;;;;;;157.98;37.30;;;2.60;99.90;;;;;;4990507;28;20582;-65
2022/01/16 03:45:49;;;;;;;162.07;34.88;;;2.60;99.90;;;;;;4992198;28;20046;-64
2022/01/16 03:48:16;;;;;;;156.35;35.20;;;2.60;99.90;;;;;;4990538;28;20513;-64
2022/01/16 03:50:41;;;;;;;151.55;35.70;;;2.70;99.90;;;;;;4990440;28;20046;-64
2022/01/16 03:53:07;;;;;;;152.18;34.85;;;2.70;99.90;;;;;;4990312;28;20046;-64
2022/01/16 03:55:34;;;;;;;175.02;37.75;;;2.70;99.90;;;;;;4991371;28;20038;-63
2022/01/16 03:57:59;;;;;;;147.18;34.15;;;2.70;99.90;;;;;;4991703;28;20379;-64
2022/01/16 04:00:25;;;;;;;135.10;33.25;;;2.70;99.90;;;;;;4990470;28;20576;-64
2022/01/16 04:02:51;;;;;;;137.75;34.03;;;2.70;99.90;;;;;;4989990;28;20488;-64
2022/01/16 04:05:16;;;;;;;140.60;30.70;;;2.70;99.90;;;;;;4991430;28;20046;-64
2022/01/16 04:07:42;;;;;;;157.00;35.60;;;2.70;99.90;;;;;;4991877;28;20124;-64
2022/01/16 04:10:08;;;;;;;149.35;39.97;;;2.80;99.90;;;;;;4991449;28;20049;-63
2022/01/16 04:12:37;;;;;;;140.43;35.47;;;2.80;99.90;;;;;;4991292;28;20125;-64
2022/01/16 04:17:30;;;;;;;137.48;32.28;;;2.80;99.90;;;;;;4991387;28;20050;-65
2022/01/16 04:19:56;;;;;;;145.95;36.95;;;2.80;99.90;;;;;;4989888;28;20089;-64
2022/01/16 04:22:21;;;;;;;159.48;37.45;;;2.80;99.90;;;;;;4991184;28;20035;-64
2022/01/16 04:24:48;;;;;;;167.18;36.78;;;2.80;99.90;;;;;;4991132;28;20038;-65
2022/01/16 04:27:14;;;;;;;159.77;37.63;;;2.80;99.90;;;;;;4991447;28;20046;-64
2022/01/16 04:29:42;;;;;;;107.65;31.05;;;2.80;99.90;;;;;;4989762;28;20038;-63
2022/01/16 04:32:08;;;;;;;119.63;32.10;;;2.80;99.90;;;;;;4989586;28;20126;-64
2022/01/16 04:34:34;;;;;;;134.10;37.05;;;2.90;99.90;;;;;;4989624;28;20046;-65
2022/01/16 04:37:00;;;;;;;159.90;38.50;;;2.90;99.90;;;;;;4991148;28;20060;-64
2022/01/16 04:39:32;;;;;;;120.57;31.25;;;2.90;99.90;;;;;;4989558;28;20603;-64
2022/01/16 04:44:42;;;;;;;141.15;36.67;;;3.00;99.90;;;;;;4990465;28;20042;-64
2022/01/16 04:47:08;;;;;;;130.98;34.17;;;3.00;99.90;;;;;;4991044;28;20034;-64
2022/01/16 04:49:34;;;;;;;136.40;34.45;;;3.00;99.90;;;;;;4990863;28;20065;-64
2022/01/16 04:51:59;;;;;;;130.90;36.15;;;3.00;99.90;;;;;;4990791;28;20046;-65
2022/01/16 04:54:25;;;;;;;137.07;35.47;;;3.10;99.90;;;;;;4990529;28;20126;-64
2022/01/16 04:56:52;;;;;;;138.48;38.50;;;3.10;99.90;;;;;;4990804;28;20121;-64
2022/01/16 04:59:17;;;;;;;128.68;36.63;;;3.10;99.90;;;;;;4990323;28;20522;-65
2022/01/16 05:01:43;;;;;;;129.70;39.00;;;3.10;99.90;;;;;;5015724;23;20432;-64
2022/01/16 05:11:32;;;;;;;82.87;25.67;;;3.20;99.90;;;;;;5508761;23;20123;-64
2022/01/16 05:16:40;;;;;;;125.45;34.35;;;3.20;99.90;;;;;;5010618;28;20061;-65
2022/01/16 05:22:11;;;;;;;121.93;35.72;;;3.10;99.90;;;;;;4967291;28;20051;-64
2022/01/16 05:24:36;;;;;;;112.28;32.47;;;3.20;99.90;;;;;;4970788;28;20051;-64
2022/01/16 05:27:02;;;;;;;116.65;36.45;;;3.20;99.90;;;;;;4953534;28;20046;-64
2022/01/16 05:29:28;;;;;;;124.80;37.42;;;3.20;99.90;;;;;;4953496;28;20119;-64
2022/01/16 05:31:53;;;;;;;124.13;35.05;;;3.20;99.90;;;;;;4970035;28;20083;-64
2022/01/16 05:34:19;;;;;;;137.77;40.53;;;3.20;99.90;;;;;;4953673;28;20042;-64
2022/01/16 05:42:05;;;;;;;117.18;35.03;;;3.20;99.90;;;;;;5172807;23;20062;-64
2022/01/16 05:44:30;;;;;;;142.63;39.40;;;3.20;99.90;;;;;;4990066;28;20470;-64
2022/01/16 05:46:56;;;;;;;136.82;40.58;;;3.20;99.90;;;;;;4990182;28;20050;-64
2022/01/16 05:49:22;;;;;;;117.80;32.33;;;3.30;99.90;;;;;;4956487;28;20057;-64
2022/01/16 05:51:47;;;;;;;134.50;41.88;;;3.30;99.90;;;;;;4972719;28;20100;-64
2022/01/16 05:54:13;;;;;;;121.85;36.33;;;3.30;99.90;;;;;;4985922;23;20038;-64
2022/01/16 05:56:38;;;;;;;127.97;38.03;;;3.30;99.90;;;;;;4970727;28;20035;-64
2022/01/16 05:59:04;;;;;;;123.63;37.20;;;3.30;99.90;;;;;;4937852;28;20089;-64
2022/01/16 06:01:30;;;;;;;131.30;37.63;;;3.30;99.90;;;;;;4971079;28;20042;-64
2022/01/16 06:03:55;;;;;;;142.63;40.20;;;3.30;99.90;;;;;;4970578;28;20039;-64
2022/01/16 06:06:21;;;;;;;131.20;36.17;;;3.30;99.90;;;;;;4970633;28;20047;-64
2022/01/16 06:08:46;;;;;;;149.23;42.08;;;3.40;99.90;;;;;;4970623;28;20039;-64
2022/01/16 06:11:12;;;;;;;141.98;38.97;;;3.40;99.90;;;;;;4970853;28;20070;-64
2022/01/16 06:13:37;;;;;;;128.65;37.38;;;3.40;99.90;;;;;;4970678;28;20043;-64
2022/01/16 06:16:03;;;;;;;131.23;37.78;;;3.40;99.90;;;;;;4970518;28;20046;-64
2022/01/16 06:18:29;;;;;;;138.13;38.90;;;3.40;99.90;;;;;;4972221;28;20047;-64
2022/01/16 06:20:55;;;;;;;135.60;37.47;;;3.40;99.90;;;;;;4974462;28;20446;-64
2022/01/16 06:23:21;;;;;;;133.43;35.83;;;3.50;99.90;;;;;;4972625;28;20487;-64
2022/01/16 06:25:54;;;;;;;132.95;37.50;;;3.50;99.90;;;;;;4974256;28;20041;-64
2022/01/16 06:28:20;;;;;;;89.03;25.35;;;3.50;99.90;;;;;;4974087;28;20043;-64
2022/01/16 06:30:46;;;;;;;136.13;36.15;;;3.50;99.90;;;;;;4973930;28;20121;-64
2022/01/16 06:33:12;;;;;;;138.00;37.85;;;3.50;99.90;;;;;;4973593;28;20137;-64
2022/01/16 06:35:37;;;;;;;127.68;35.90;;;3.50;99.90;;;;;;4972392;28;20046;-64
2022/01/16 06:38:04;;;;;;;93.65;28.02;;;3.50;99.90;;;;;;4973697;28;20050;-64
2022/01/16 06:40:29;;;;;;;126.93;36.42;;;3.50;99.90;;;;;;4973920;28;20039;-64
2022/01/16 06:42:55;;;;;;;138.07;38.75;;;3.60;99.90;;;;;;4973763;28;20097;-64
2022/01/16 06:45:21;;;;;;;120.72;34.15;;;3.50;99.90;;;;;;4970820;28;20043;-64
2022/01/16 06:47:46;;;;;;;119.25;34.05;;;3.60;99.90;;;;;;4970253;28;20055;-65
2022/01/16 06:50:12;;;;;;;128.75;35.05;;;3.60;99.90;;;;;;4969215;28;20050;-65
2022/01/16 06:52:38;;;;;;;120.75;32.53;;;3.60;99.90;;;;;;4969217;28;20038;-65
2022/01/16 06:55:04;;;;;;;143.10;36.40;;;3.60;99.90;;;;;;4970325;28;20089;-65
2022/01/16 06:57:30;;;;;;;130.75;37.78;;;3.60;99.90;;;;;;4970069;28;20077;-65
2022/01/16 06:59:55;;;;;;;130.63;39.20;;;3.60;99.90;;;;;;4969326;28;20619;-65
2022/01/16 07:02:22;;;;;;;139.20;40.58;;;3.70;99.90;;;;;;4969313;28;20538;-65
2022/01/16 07:04:48;;;;;;;123.15;32.67;;;3.70;99.90;;;;;;4968984;28;20074;-65
2022/01/16 07:07:13;;;;;;;122.22;33.67;;;3.70;99.90;;;;;;4970297;28;20073;-65
2022/01/16 07:09:39;;;;;;;132.38;36.40;;;3.70;99.90;;;;;;4970054;28;20655;-65
2022/01/16 07:12:06;;;;;;;137.35;36.20;;;3.70;99.90;;;;;;4970166;28;20583;-65
2022/01/16 07:14:31;;;;;;;121.88;32.83;;;3.70;99.90;;;;;;4968686;28;20097;-65
2022/01/16 07:16:57;;;;;;;121.63;31.00;;;3.70;99.90;;;;;;4969952;28;20046;-65
2022/01/16 07:19:22;;;;;;;117.78;32.42;;;3.70;99.90;;;;;;4970123;28;20122;-65
2022/01/16 07:21:48;;;;;;;113.38;33.03;;;3.80;99.90;;;;;;4969689;28;20042;-65
2022/01/16 07:24:16;;;;;;;109.65;31.42;;;3.80;99.90;;;;;;4969831;28;20039;-65
2022/01/16 07:26:43;;;;;;;128.10;35.00;;;3.80;99.90;;;;;;4969528;28;20073;-65
2022/01/16 07:29:09;;;;;;;112.28;34.08;;;3.80;99.90;;;;;;4971935;28;20102;-65
2022/01/16 07:31:36;;;;;;;118.82;34.13;;;3.80;99.90;;;;;;4971290;28;20766;-65
2022/01/16 07:34:02;;;;;;;114.15;32.28;;;3.90;99.90;;;;;;4972568;28;20086;-65
2022/01/16 07:36:28;;;;;;;120.47;33.83;;;3.90;99.90;;;;;;4971552;28;20043;-65
2022/01/16 07:38:53;;;;;;;110.55;31.42;;;3.80;99.90;;;;;;4971286;28;20051;-65
2022/01/16 07:41:19;;;;;;;112.30;32.17;;;3.90;99.90;;;;;;4970061;28;20043;-65
2022/01/16 07:43:44;;;;;;;113.80;32.03;;;3.90;99.90;;;;;;4969288;28;20045;-65
2022/01/16 07:46:10;;;;;;;110.55;33.50;;;3.90;99.90;;;;;;4968403;28;20043;-65
2022/01/16 07:48:35;;;;;;;125.65;32.90;;;3.90;99.90;;;;;;4968162;28;20055;-65
2022/01/16 07:51:01;;;;;;;128.10;38.05;;;4.00;99.90;;;;;;4968290;28;20113;-65
2022/01/16 07:53:26;;;;;;;116.93;32.80;;;4.00;99.90;;;;;;4967595;28;20046;-65
2022/01/16 07:55:52;;;;;;;130.85;35.85;;;4.00;99.90;;;;;;4969553;28;20042;-65
2022/01/16 07:58:17;;;;;;;115.50;35.85;;;4.00;99.90;;;;;;4969733;28;20054;-65
2022/01/16 08:00:43;;;;;;;113.63;33.47;;;4.10;99.90;;;;;;4970862;28;20747;-65
2022/01/16 08:03:09;;;;;;;111.80;32.33;;;4.10;99.90;;;;;;4972122;28;20581;-66
2022/01/16 08:05:34;;;;;;;108.78;33.13;;;4.20;99.90;;;;;;4970942;28;20043;-66
2022/01/16 08:08:00;;;;;;;115.38;33.45;;;4.20;99.90;;;;;;4972379;28;20126;-66
2022/01/16 08:10:26;;;;;;;109.22;34.10;;;4.20;99.90;;;;;;4972145;28;20051;-66
2022/01/16 08:12:51;;;;;;;119.72;35.25;;;4.20;99.90;;;;;;4970528;28;20082;-65
2022/01/16 08:15:17;;;;;;;112.20;33.72;;;4.30;99.90;;;;;;4971858;28;20047;-65
2022/01/16 08:17:42;;;;;;;116.80;33.33;;;4.30;99.90;;;;;;4970928;28;20494;-65
2022/01/16 08:20:09;;;;;;;108.13;33.85;;;4.30;99.90;;;;;;4972099;28;20085;-65
2022/01/16 08:22:36;;;;;;;106.07;31.80;;;4.30;99.90;;;;;;4970407;28;20514;-66
2022/01/16 08:25:04;;;;;;;110.57;33.50;;;4.30;99.90;;;;;;4970405;28;20049;-65
2022/01/16 08:27:30;;;;;;;102.68;32.28;;;4.40;99.90;;;;;;4970525;28;20085;-65
2022/01/16 08:29:56;;;;;;;106.07;32.45;;;4.40;99.90;;;;;;4970437;28;20070;-65
2022/01/16 08:32:21;;;;;;;104.65;33.58;;;4.40;99.90;;;;;;4971745;28;20037;-65
2022/01/16 08:34:47;;;;;;;105.95;32.80;;;4.40;99.90;;;;;;4971418;28;20494;-65
2022/01/16 08:37:12;;;;;;;101.07;33.08;;;4.40;99.90;;;;;;4970567;28;20043;-65
2022/01/16 08:39:38;;;;;;;101.70;33.30;;;4.40;99.90;;;;;;4971610;28;20626;-65
2022/01/16 08:42:04;;;;;;;104.75;34.70;;;4.50;99.90;;;;;;4971420;28;20162;-65
2022/01/16 08:44:29;;;;;;;108.18;33.50;;;4.50;99.90;;;;;;4970047;28;20081;-65
2022/01/16 08:46:55;;;;;;;97.47;32.45;;;4.50;99.90;;;;;;4971278;28;20411;-65
2022/01/16 08:49:20;;;;;;;101.00;31.98;;;4.50;99.90;;;;;;4971640;28;20035;-64
2022/01/16 08:51:47;;;;;;;107.40;34.85;;;4.50;99.90;;;;;;4971635;28;20046;-65
2022/01/16 08:54:13;;;;;;;110.80;33.47;;;4.50;99.90;;;;;;4969525;28;20058;-65
2022/01/16 08:56:38;;;;;;;98.82;32.42;;;4.50;99.90;;;;;;4997669;28;20042;-66
2022/01/16 08:59:04;;;;;;;106.45;33.83;;;4.60;99.90;;;;;;5000849;28;20045;-65
2022/01/16 09:01:30;;;;;;;106.72;34.28;;;4.60;99.90;;;;;;4999920;28;20037;-65
2022/01/16 09:03:55;;;;;;;94.97;33.47;;;4.60;99.90;;;;;;5000189;28;20030;-65
2022/01/16 09:06:21;;;;;;;102.40;34.83;;;4.60;99.90;;;;;;4997948;28;20046;-65
2022/01/16 09:08:46;;;;;;;106.40;34.30;;;4.60;99.90;;;;;;4999938;28;20100;-65
2022/01/16 09:11:12;;;;;;;92.70;31.23;;;4.60;99.90;;;;;;5008103;28;20116;-65
2022/01/16 09:13:40;;;;;;;104.53;34.33;;;4.70;99.90;;;;;;5008713;28;20042;-65
2022/01/16 09:16:07;;;;;;;96.05;33.88;;;4.80;99.90;;;;;;5010610;28;20524;-66
2022/01/16 09:18:33;;;;;;;89.60;35.53;;;4.80;99.90;;;;;;5010660;28;20046;-66
2022/01/16 09:21:01;;;;;;;93.80;33.00;;;4.80;99.90;;;;;;5010458;28;20044;-65
2022/01/16 09:23:27;;;;;;;94.75;33.85;;;4.90;99.90;;;;;;5010137;28;20038;-65
2022/01/16 09:25:53;;;;;;;97.50;33.53;;;4.90;99.90;;;;;;5010319;28;20108;-66
2022/01/16 09:28:18;;;;;;;90.82;34.47;;;5.00;99.90;;;;;;5009233;28;20431;-66
2022/01/16 09:30:44;;;;;;;94.55;34.28;;;5.00;99.90;;;;;;5010127;28;20129;-65
2022/01/16 09:33:10;;;;;;;98.18;35.25;;;5.00;99.90;;;;;;5001340;28;20037;-66
2022/01/16 09:35:35;;;;;;;91.15;32.05;;;5.00;99.90;;;;;;4999628;28;20022;-66
2022/01/16 09:38:02;;;;;;;94.78;33.38;;;5.10;99.90;;;;;;5000843;28;20076;-66
2022/01/16 09:40:28;;;;;;;92.10;34.83;;;5.10;99.90;;;;;;4998956;28;20100;-66
2022/01/16 09:42:54;;;;;;;82.07;32.92;;;5.20;99.90;;;;;;4994383;28;20034;-66
2022/01/16 09:45:20;;;;;;;88.15;34.15;;;5.20;99.90;;;;;;4990282;28;20061;-66
2022/01/16 09:47:47;;;;;;;87.75;33.75;;;5.20;99.90;;;;;;4990356;28;20457;-66
2022/01/16 09:50:16;;;;;;;84.50;31.60;;;5.30;99.90;;;;;;4990287;28;20035;-67
2022/01/16 09:52:44;;;;;;;86.65;34.63;;;5.30;99.90;;;;;;4990508;28;20577;-66
2022/01/16 09:55:10;;;;;;;82.45;32.13;;;5.40;99.90;;;;;;4995060;28;20042;-66
2022/01/16 09:57:37;;;;;;;79.22;32.35;;;5.40;99.90;;;;;;4999870;28;20098;-66
2022/01/16 10:00:07;;;;;;;77.25;31.23;;;5.50;99.90;;;;;;5002934;28;20034;-67
2022/01/16 10:02:33;;;;;;;79.75;33.22;;;5.40;99.90;;;;;;5004079;28;20232;-67
2022/01/16 10:04:59;;;;;;;73.00;32.08;;;5.50;99.90;;;;;;5003200;28;20029;-66
2022/01/16 10:07:24;;;;;;;76.32;32.38;;;5.50;99.90;;;;;;5002848;28;20034;-66
2022/01/16 10:10:10;;;;;;;71.88;31.08;;;5.60;99.90;;;;;;5002921;28;20049;-66
2022/01/16 10:12:40;;;;;;;71.32;30.50;;;5.60;99.90;;;;;;5003007;28;20129;-66
2022/01/16 10:15:27;;;;;;;70.53;30.35;;;5.60;99.90;;;;;;5000762;28;20074;-67
2022/01/16 10:17:58;;;;;;;71.18;30.73;;;5.60;99.90;;;;;;5009770;28;20042;-66
2022/01/16 10:20:25;;;;;;;71.47;31.35;;;5.60;99.90;;;;;;5001819;28;20203;-66
2022/01/16 10:22:57;;;;;;;68.57;29.98;;;5.70;99.90;;;;;;4999720;28;20034;-66
2022/01/16 10:25:44;;;;;;;71.32;30.38;;;5.60;99.90;;;;;;5000500;28;20045;-66
2022/01/16 10:28:20;;;;;;;72.82;30.23;;;5.70;99.90;;;;;;4999683;28;20414;-67
2022/01/16 10:30:54;;;;;;;63.95;29.85;;;5.70;99.90;;;;;;5002029;28;20092;-66
2022/01/16 10:33:22;;;;;;;65.68;30.02;;;5.70;99.90;;;;;;5001836;28;20394;-66
2022/01/16 10:35:51;;;;;;;57.15;28.60;;;5.80;99.90;;;;;;5001093;28;20046;-66
2022/01/16 10:38:26;;;;;;;72.90;31.77;;;5.80;99.90;;;;;;4993402;28;20042;-66
2022/01/16 10:40:54;;;;;;;65.32;29.55;;;5.80;99.90;;;;;;4993275;28;20034;-67
2022/01/16 10:43:35;;;;;;;69.38;31.05;;;5.90;99.90;;;;;;4992018;28;20046;-66
2022/01/16 10:46:00;;;;;;;66.95;29.05;;;5.90;99.90;;;;;;4993459;28;20093;-66
2022/01/16 10:48:26;;;;;;;59.63;28.52;;;5.90;99.90;;;;;;4993406;28;20042;-66
2022/01/16 10:50:51;;;;;;;65.95;28.60;;;6.00;99.90;;;;;;4998059;28;20037;-68
2022/01/16 10:53:23;;;;;;;60.45;27.70;;;6.00;99.90;;;;;;4999730;28;20502;-66
2022/01/16 10:55:51;;;;;;;63.00;29.13;;;6.00;99.90;;;;;;4997738;28;20046;-66
2022/01/16 10:58:21;;;;;;;60.97;27.60;;;6.00;99.90;;;;;;5000360;28;20072;-66
2022/01/16 11:00:54;;;;;;;59.78;27.98;;;6.00;99.90;;;;;;5002435;28;20104;-66
2022/01/16 11:03:21;;;;;;;54.92;27.65;;;6.00;99.90;;;;;;4999548;28;20054;-66
2022/01/16 11:05:47;;;;;;;60.15;27.95;;;6.00;99.90;;;;;;5000307;28;20027;-66
2022/01/16 11:08:16;;;;;;;53.78;25.00;;;6.00;99.90;;;;;;5000391;28;20545;-66
2022/01/16 11:10:47;;;;;;;55.72;27.73;;;6.10;99.90;;;;;;5000122;28;20053;-67
2022/01/16 11:13:21;;;;;;;56.13;26.58;;;6.00;99.90;;;;;;5000995;28;20568;-66
2022/01/16 11:15:54;;;;;;;54.80;26.10;;;6.10;99.90;;;;;;4990408;28;20085;-67
2022/01/16 11:18:22;;;;;;;55.25;26.65;;;6.10;99.90;;;;;;4971715;28;20042;-67
2022/01/16 11:20:57;;;;;;;58.05;25.52;;;6.10;99.90;;;;;;4971875;28;20047;-67
2022/01/16 11:25:58;;;;;;;56.50;25.58;;;6.10;99.90;;;;;;4971948;28;20086;-67
2022/01/16 11:28:24;;;;;;;50.95;24.88;;;6.10;99.90;;;;;;4972991;28;20043;-66
2022/01/16 11:30:59;;;;;;;50.15;25.45;;;6.20;99.90;;;;;;4973097;28;20584;-66
2022/01/16 11:33:26;;;;;;;50.92;24.50;;;6.20;99.90;;;;;;4971411;28;20046;-67
2022/01/16 11:35:58;;;;;;;46.50;24.35;;;6.20;99.90;;;;;;4972922;28;20039;-67
2022/01/16 11:38:28;;;;;;;49.47;23.75;;;6.20;99.90;;;;;;4972732;28;20038;-67
2022/01/16 11:40:54;;;;;;;44.33;23.27;;;6.20;99.90;;;;;;4972910;28;20043;-67
2022/01/16 11:43:32;;;;;;;45.45;22.70;;;6.30;99.90;;;;;;4972451;28;20450;-66
2022/01/16 11:46:11;;;;;;;49.20;23.63;;;6.30;99.90;;;;;;4975677;28;20089;-66
2022/01/16 11:48:53;;;;;;;47.95;21.92;;;6.30;99.90;;;;;;5011495;28;20664;-66
2022/01/16 11:51:39;;;;;;;40.13;20.58;;;6.30;99.90;;;;;;5010236;28;20046;-67
2022/01/16 11:54:28;;;;;;;41.03;20.30;;;6.40;99.90;;;;;;5053820;23;20076;-65
2022/01/16 11:56:57;;;;;;;40.45;19.30;;;6.40;99.90;;;;;;4997465;28;20057;-65
2022/01/16 11:59:34;;;;;;;39.88;17.50;;;6.50;99.90;;;;;;5002736;28;20528;-65
2022/01/16 12:02:04;;;;;;;33.38;17.60;;;6.50;99.90;;;;;;5030248;28;20052;-65
2022/01/16 12:04:29;;;;;;;30.00;15.23;;;6.60;99.90;;;;;;5022326;28;20041;-65
2022/01/16 12:07:22;;;;;;;30.17;14.95;;;6.70;99.90;;;;;;5009410;28;20422;-65
2022/01/16 12:09:50;;;;;;;29.45;14.38;;;6.70;99.90;;;;;;5009414;28;20050;-65
2022/01/16 12:12:15;;;;;;;31.90;14.48;;;6.80;99.90;;;;;;5009359;28;20037;-65
2022/01/16 12:15:16;;;;;;;28.17;14.80;;;6.80;99.90;;;;;;4991927;28;20045;-65
2022/01/16 12:17:44;;;;;;;32.13;14.77;;;6.90;99.90;;;;;;4992599;28;20092;-65
2022/01/16 12:20:15;;;;;;;26.67;14.45;;;6.90;99.90;;;;;;4992100;28;20046;-65
2022/01/16 12:22:57;;;;;;;30.98;14.52;;;6.90;99.90;;;;;;4992925;28;20512;-65
2022/01/16 12:25:26;;;;;;;27.27;14.15;;;6.90;99.90;;;;;;4993477;28;20049;-65
2022/01/16 12:28:01;;;;;;;28.92;14.55;;;6.90;99.90;;;;;;5010939;28;20044;-65
2022/01/16 12:30:35;;;;;;;26.88;13.85;;;7.00;99.90;;;;;;5010783;28;20042;-65
2022/01/16 12:33:16;;;;;;;27.08;13.82;;;7.00;99.90;;;;;;5010569;28;20033;-65
2022/01/16 12:35:42;;;;;;;25.67;13.65;;;7.00;99.90;;;;;;5010640;28;20048;-65
2022/01/16 12:38:10;;;;;;;28.80;13.43;;;7.00;99.90;;;;;;5010633;28;20409;-65
2022/01/16 12:40:42;;;;;;;27.83;14.45;;;7.10;99.90;;;;;;5010507;28;20042;-65
2022/01/16 12:43:12;;;;;;;28.55;13.40;;;7.10;99.90;;;;;;5010449;28;20038;-65
2022/01/16 12:45:39;;;;;;;26.48;12.85;;;7.10;99.90;;;;;;5010490;28;20607;-65
2022/01/16 12:48:05;;;;;;;28.10;13.95;;;7.10;99.90;;;;;;4976491;28;20042;-65
2022/01/16 12:50:32;;;;;;;26.30;13.18;;;7.10;99.90;;;;;;4992801;28;20054;-66
2022/01/16 12:52:58;;;;;;;28.42;13.13;;;7.20;99.90;;;;;;5010163;28;20041;-65
2022/01/16 12:55:27;;;;;;;24.15;12.60;;;7.20;99.90;;;;;;5010301;28;20038;-65
2022/01/16 12:57:53;;;;;;;26.67;13.20;;;7.20;99.90;;;;;;4992954;28;20124;-66
2022/01/16 13:00:19;;;;;;;28.30;13.00;;;7.20;99.90;;;;;;5010358;28;20113;-65
2022/01/16 13:02:44;;;;;;;25.77;13.27;;;7.20;99.90;;;;;;4992265;28;20042;-66
2022/01/16 13:05:18;;;;;;;24.95;13.55;;;7.20;99.90;;;;;;5010223;28;20045;-66
2022/01/16 13:07:44;;;;;;;29.45;13.90;;;7.20;99.90;;;;;;5010350;28;20042;-65
2022/01/16 13:10:10;;;;;;;22.65;13.48;;;7.30;99.90;;;;;;4999533;28;20033;-66
2022/01/16 13:12:35;;;;;;;23.52;12.48;;;7.20;99.90;;;;;;4995935;28;20034;-65
2022/01/16 13:15:01;;;;;;;19.77;12.48;;;7.30;99.90;;;;;;4990371;28;20034;-65
2022/01/16 13:17:31;;;;;;;26.63;12.48;;;7.30;99.90;;;;;;4990777;28;20050;-66
2022/01/16 13:19:59;;;;;;;21.63;12.55;;;7.20;99.90;;;;;;4990588;28;20057;-65
2022/01/16 13:22:30;;;;;;;30.92;14.23;;;7.20;99.90;;;;;;4995392;28;20041;-66
2022/01/16 13:25:03;;;;;;;26.37;13.47;;;7.20;99.90;;;;;;5000733;28;20049;-66
2022/01/16 13:27:32;;;;;;;26.42;15.15;;;7.30;99.90;;;;;;5009015;28;20124;-65
2022/01/16 13:30:26;;;;;;;30.85;16.77;;;7.20;99.90;;;;;;4970910;28;20035;-66
2022/01/16 13:32:52;;;;;;;29.83;16.90;;;7.10;99.90;;;;;;4982257;28;20050;-66
2022/01/16 13:35:22;;;;;;;32.17;17.50;;;7.10;99.90;;;;;;4990248;28;20052;-66
2022/01/16 13:37:52;;;;;;;32.03;17.50;;;7.00;99.90;;;;;;4972557;28;20129;-65
2022/01/16 13:40:22;;;;;;;32.10;17.60;;;7.00;99.90;;;;;;4990277;28;20038;-66